Arietta, New York
Current Conditions -  °F | °C
As of 4:15 PM on Saturday 20 Dec 2014 (Local Time) from KNY0 Reporting Station
Broken Clouds Broken Clouds  
Wind Chill: 23°   Ceiling: 2300
Heat Index: 23°   Visibility: 10mi
Dew Point: 15°   Wind: 0mph
Humidity: 71%   Direction: NA
Pressure: 30.25"   Gusts: NA
Location:  43.5975°N, 74.5775°W
Report Text: KNY0 202115Z AUTO 00000KT 10SM BKN023 M05/M09 A3025 RMK AO2 T10501095
Loading
Personal Weather Stations






























Interactive Weather Map New forecast layout! Learn more

10-Day Weather Forecast

Advertisements
Track Severe Weather on mobile